sensor_id;sensor_type;location;lat;lon;timestamp;P1;durP1;ratioP1;P2;durP2;ratioP2
14681;SDS011;7429;52.498;13.480;2023-07-31T00:01:45;7.47;;;4.57;;
14681;SDS011;7429;52.498;13.480;2023-07-31T00:04:48;5.53;;;5.10;;
14681;SDS011;7429;52.498;13.480;2023-07-31T00:07:52;6.75;;;4.57;;
14681;SDS011;7429;52.498;13.480;2023-07-31T00:10:57;4.68;;;4.28;;
14681;SDS011;7429;52.498;13.480;2023-07-31T00:14:00;6.10;;;4.20;;
14681;SDS011;7429;52.498;13.480;2023-07-31T00:17:04;6.45;;;4.45;;
14681;SDS011;7429;52.498;13.480;2023-07-31T00:20:08;5.25;;;4.90;;
14681;SDS011;7429;52.498;13.480;2023-07-31T00:23:12;4.88;;;3.88;;
14681;SDS011;7429;52.498;13.480;2023-07-31T00:26:16;8.20;;;7.03;;
14681;SDS011;7429;52.498;13.480;2023-07-31T00:29:20;8.15;;;7.55;;
14681;SDS011;7429;52.498;13.480;2023-07-31T00:32:25;4.90;;;4.50;;
14681;SDS011;7429;52.498;13.480;2023-07-31T00:35:28;5.78;;;5.43;;
14681;SDS011;7429;52.498;13.480;2023-07-31T00:38:33;7.95;;;7.45;;
14681;SDS011;7429;52.498;13.480;2023-07-31T00:41:37;10.15;;;9.48;;
14681;SDS011;7429;52.498;13.480;2023-07-31T00:44:41;12.20;;;11.43;;
14681;SDS011;7429;52.498;13.480;2023-07-31T00:47:44;7.93;;;7.10;;
14681;SDS011;7429;52.498;13.480;2023-07-31T00:50:47;7.18;;;6.57;;
14681;SDS011;7429;52.498;13.480;2023-07-31T00:53:50;9.07;;;6.68;;
14681;SDS011;7429;52.498;13.480;2023-07-31T00:56:56;9.98;;;4.40;;
14681;SDS011;7429;52.498;13.480;2023-07-31T01:00:00;4.50;;;4.20;;
14681;SDS011;7429;52.498;13.480;2023-07-31T01:03:05;4.35;;;3.95;;
14681;SDS011;7429;52.498;13.480;2023-07-31T01:06:10;6.47;;;5.85;;
14681;SDS011;7429;52.498;13.480;2023-07-31T01:09:21;5.93;;;5.50;;
14681;SDS011;7429;52.498;13.480;2023-07-31T01:12:38;6.20;;;5.72;;
14681;SDS011;7429;52.498;13.480;2023-07-31T01:15:41;5.90;;;5.40;;
14681;SDS011;7429;52.498;13.480;2023-07-31T01:18:44;6.97;;;4.13;;
14681;SDS011;7429;52.498;13.480;2023-07-31T01:21:53;7.03;;;4.82;;
14681;SDS011;7429;52.498;13.480;2023-07-31T01:25:20;5.35;;;4.47;;
14681;SDS011;7429;52.498;13.480;2023-07-31T01:28:55;7.72;;;4.25;;
14681;SDS011;7429;52.498;13.480;2023-07-31T01:32:04;5.32;;;4.88;;
14681;SDS011;7429;52.498;13.480;2023-07-31T01:35:11;5.05;;;4.63;;
14681;SDS011;7429;52.498;13.480;2023-07-31T01:38:15;6.13;;;5.60;;
14681;SDS011;7429;52.498;13.480;2023-07-31T01:41:22;6.55;;;5.70;;
14681;SDS011;7429;52.498;13.480;2023-07-31T01:44:25;6.68;;;6.07;;
14681;SDS011;7429;52.498;13.480;2023-07-31T01:47:29;9.68;;;8.98;;
14681;SDS011;7429;52.498;13.480;2023-07-31T01:50:32;10.43;;;9.73;;
14681;SDS011;7429;52.498;13.480;2023-07-31T01:53:35;11.88;;;10.82;;
14681;SDS011;7429;52.498;13.480;2023-07-31T01:56:40;5.53;;;5.13;;
14681;SDS011;7429;52.498;13.480;2023-07-31T01:59:43;7.43;;;6.53;;
14681;SDS011;7429;52.498;13.480;2023-07-31T02:02:47;7.40;;;6.68;;
14681;SDS011;7429;52.498;13.480;2023-07-31T02:05:50;7.28;;;6.68;;
14681;SDS011;7429;52.498;13.480;2023-07-31T02:08:53;7.15;;;6.57;;
14681;SDS011;7429;52.498;13.480;2023-07-31T02:11:57;6.90;;;6.40;;
14681;SDS011;7429;52.498;13.480;2023-07-31T02:15:01;6.38;;;5.88;;
14681;SDS011;7429;52.498;13.480;2023-07-31T02:18:04;8.52;;;7.40;;
14681;SDS011;7429;52.498;13.480;2023-07-31T02:21:10;6.05;;;5.45;;
14681;SDS011;7429;52.498;13.480;2023-07-31T02:24:13;9.38;;;8.07;;
14681;SDS011;7429;52.498;13.480;2023-07-31T02:27:17;8.18;;;6.22;;
14681;SDS011;7429;52.498;13.480;2023-07-31T02:30:20;6.95;;;6.38;;
14681;SDS011;7429;52.498;13.480;2023-07-31T02:33:24;8.55;;;6.28;;
14681;SDS011;7429;52.498;13.480;2023-07-31T02:36:28;11.65;;;10.65;;
14681;SDS011;7429;52.498;13.480;2023-07-31T02:39:31;7.05;;;6.55;;
14681;SDS011;7429;52.498;13.480;2023-07-31T02:42:35;6.82;;;5.90;;
14681;SDS011;7429;52.498;13.480;2023-07-31T02:45:38;6.93;;;6.43;;
14681;SDS011;7429;52.498;13.480;2023-07-31T02:48:45;7.70;;;6.82;;
14681;SDS011;7429;52.498;13.480;2023-07-31T02:51:48;8.48;;;6.07;;
14681;SDS011;7429;52.498;13.480;2023-07-31T02:54:51;7.85;;;6.05;;
14681;SDS011;7429;52.498;13.480;2023-07-31T02:57:56;9.50;;;8.73;;
14681;SDS011;7429;52.498;13.480;2023-07-31T03:01:00;11.70;;;10.77;;
14681;SDS011;7429;52.498;13.480;2023-07-31T03:04:03;8.88;;;7.55;;
14681;SDS011;7429;52.498;13.480;2023-07-31T03:07:07;10.32;;;9.32;;
14681;SDS011;7429;52.498;13.480;2023-07-31T03:10:10;8.88;;;8.07;;
14681;SDS011;7429;52.498;13.480;2023-07-31T03:13:14;13.02;;;12.07;;
14681;SDS011;7429;52.498;13.480;2023-07-31T03:16:18;11.05;;;9.90;;
14681;SDS011;7429;52.498;13.480;2023-07-31T03:19:21;11.77;;;10.65;;
14681;SDS011;7429;52.498;13.480;2023-07-31T03:22:24;13.18;;;12.27;;
14681;SDS011;7429;52.498;13.480;2023-07-31T03:25:27;13.57;;;12.38;;
14681;SDS011;7429;52.498;13.480;2023-07-31T03:28:31;9.95;;;9.15;;
14681;SDS011;7429;52.498;13.480;2023-07-31T03:31:36;11.50;;;10.05;;
14681;SDS011;7429;52.498;13.480;2023-07-31T03:34:39;9.93;;;8.73;;
14681;SDS011;7429;52.498;13.480;2023-07-31T03:37:42;10.98;;;8.80;;
14681;SDS011;7429;52.498;13.480;2023-07-31T03:40:48;8.65;;;7.50;;
14681;SDS011;7429;52.498;13.480;2023-07-31T03:43:53;8.27;;;7.53;;
14681;SDS011;7429;52.498;13.480;2023-07-31T03:46:57;11.32;;;8.73;;
14681;SDS011;7429;52.498;13.480;2023-07-31T03:50:01;13.27;;;8.35;;
14681;SDS011;7429;52.498;13.480;2023-07-31T03:53:04;9.88;;;8.90;;
14681;SDS011;7429;52.498;13.480;2023-07-31T03:56:07;12.25;;;7.32;;
14681;SDS011;7429;52.498;13.480;2023-07-31T03:59:12;9.00;;;8.20;;
14681;SDS011;7429;52.498;13.480;2023-07-31T04:02:15;11.73;;;10.52;;
14681;SDS011;7429;52.498;13.480;2023-07-31T04:05:20;12.20;;;11.02;;
14681;SDS011;7429;52.498;13.480;2023-07-31T04:08:23;10.02;;;9.13;;
14681;SDS011;7429;52.498;13.480;2023-07-31T04:11:27;12.00;;;9.45;;
14681;SDS011;7429;52.498;13.480;2023-07-31T04:14:31;8.60;;;7.22;;
14681;SDS011;7429;52.498;13.480;2023-07-31T04:17:34;7.47;;;6.70;;
14681;SDS011;7429;52.498;13.480;2023-07-31T04:20:37;9.77;;;8.52;;
14681;SDS011;7429;52.498;13.480;2023-07-31T04:23:42;13.30;;;10.98;;
14681;SDS011;7429;52.498;13.480;2023-07-31T04:26:45;11.10;;;10.30;;
14681;SDS011;7429;52.498;13.480;2023-07-31T04:29:49;8.02;;;7.30;;
14681;SDS011;7429;52.498;13.480;2023-07-31T04:32:53;9.65;;;8.85;;
14681;SDS011;7429;52.498;13.480;2023-07-31T04:35:56;11.35;;;8.73;;
14681;SDS011;7429;52.498;13.480;2023-07-31T04:38:59;10.27;;;9.32;;
14681;SDS011;7429;52.498;13.480;2023-07-31T04:42:03;10.63;;;9.57;;
14681;SDS011;7429;52.498;13.480;2023-07-31T04:45:09;10.88;;;9.23;;
14681;SDS011;7429;52.498;13.480;2023-07-31T04:48:12;9.43;;;8.55;;
14681;SDS011;7429;52.498;13.480;2023-07-31T04:51:15;11.95;;;9.05;;
14681;SDS011;7429;52.498;13.480;2023-07-31T04:54:18;8.18;;;7.28;;
14681;SDS011;7429;52.498;13.480;2023-07-31T04:57:21;10.40;;;7.95;;
14681;SDS011;7429;52.498;13.480;2023-07-31T05:00:26;15.02;;;7.18;;
14681;SDS011;7429;52.498;13.480;2023-07-31T05:03:30;7.63;;;6.43;;
14681;SDS011;7429;52.498;13.480;2023-07-31T05:06:34;6.70;;;6.10;;
14681;SDS011;7429;52.498;13.480;2023-07-31T05:09:37;7.47;;;6.20;;
14681;SDS011;7429;52.498;13.480;2023-07-31T05:12:41;9.98;;;7.10;;
14681;SDS011;7429;52.498;13.480;2023-07-31T05:15:45;12.25;;;6.88;;
14681;SDS011;7429;52.498;13.480;2023-07-31T05:18:50;14.05;;;8.27;;
14681;SDS011;7429;52.498;13.480;2023-07-31T05:21:53;11.52;;;7.93;;
14681;SDS011;7429;52.498;13.480;2023-07-31T05:24:57;12.77;;;8.20;;
14681;SDS011;7429;52.498;13.480;2023-07-31T05:28:00;8.88;;;7.60;;
14681;SDS011;7429;52.498;13.480;2023-07-31T05:31:05;6.75;;;6.20;;
14681;SDS011;7429;52.498;13.480;2023-07-31T05:34:08;8.10;;;6.28;;
14681;SDS011;7429;52.498;13.480;2023-07-31T05:37:11;8.68;;;7.68;;
14681;SDS011;7429;52.498;13.480;2023-07-31T05:40:14;7.65;;;5.90;;
14681;SDS011;7429;52.498;13.480;2023-07-31T05:43:18;9.48;;;6.38;;
14681;SDS011;7429;52.498;13.480;2023-07-31T05:46:22;7.55;;;5.90;;
14681;SDS011;7429;52.498;13.480;2023-07-31T05:49:28;7.78;;;6.25;;
14681;SDS011;7429;52.498;13.480;2023-07-31T05:52:31;7.97;;;6.50;;
14681;SDS011;7429;52.498;13.480;2023-07-31T05:55:34;11.68;;;5.78;;
14681;SDS011;7429;52.498;13.480;2023-07-31T05:58:37;7.32;;;6.60;;
14681;SDS011;7429;52.498;13.480;2023-07-31T06:01:42;8.13;;;6.10;;
14681;SDS011;7429;52.498;13.480;2023-07-31T06:04:45;7.55;;;5.57;;
14681;SDS011;7429;52.498;13.480;2023-07-31T06:07:48;5.68;;;5.05;;
14681;SDS011;7429;52.498;13.480;2023-07-31T06:10:52;11.23;;;5.35;;
14681;SDS011;7429;52.498;13.480;2023-07-31T06:13:55;6.97;;;5.10;;
14681;SDS011;7429;52.498;13.480;2023-07-31T06:17:00;10.27;;;9.35;;
14681;SDS011;7429;52.498;13.480;2023-07-31T06:20:03;9.40;;;6.75;;
14681;SDS011;7429;52.498;13.480;2023-07-31T06:23:09;11.55;;;9.63;;
14681;SDS011;7429;52.498;13.480;2023-07-31T06:26:12;8.40;;;5.88;;
14681;SDS011;7429;52.498;13.480;2023-07-31T06:29:15;11.35;;;5.68;;
14681;SDS011;7429;52.498;13.480;2023-07-31T06:32:20;9.13;;;7.45;;
14681;SDS011;7429;52.498;13.480;2023-07-31T06:35:23;10.00;;;6.82;;
14681;SDS011;7429;52.498;13.480;2023-07-31T06:38:26;6.72;;;5.78;;
14681;SDS011;7429;52.498;13.480;2023-07-31T06:41:32;7.43;;;5.53;;
14681;SDS011;7429;52.498;13.480;2023-07-31T06:44:39;8.95;;;5.25;;
14681;SDS011;7429;52.498;13.480;2023-07-31T06:47:43;6.30;;;5.70;;
14681;SDS011;7429;52.498;13.480;2023-07-31T06:50:46;8.55;;;6.05;;
14681;SDS011;7429;52.498;13.480;2023-07-31T06:53:50;8.05;;;5.00;;
14681;SDS011;7429;52.498;13.480;2023-07-31T06:56:53;8.57;;;6.90;;
14681;SDS011;7429;52.498;13.480;2023-07-31T06:59:56;7.68;;;5.35;;
14681;SDS011;7429;52.498;13.480;2023-07-31T07:03:00;7.03;;;5.10;;
14681;SDS011;7429;52.498;13.480;2023-07-31T07:06:06;9.60;;;5.65;;
14681;SDS011;7429;52.498;13.480;2023-07-31T07:09:09;9.15;;;7.65;;
14681;SDS011;7429;52.498;13.480;2023-07-31T07:12:12;10.60;;;7.10;;
14681;SDS011;7429;52.498;13.480;2023-07-31T07:15:15;7.30;;;6.45;;
14681;SDS011;7429;52.498;13.480;2023-07-31T07:18:20;5.35;;;4.43;;
14681;SDS011;7429;52.498;13.480;2023-07-31T07:21:23;6.53;;;5.78;;
14681;SDS011;7429;52.498;13.480;2023-07-31T07:24:26;7.40;;;6.20;;
14681;SDS011;7429;52.498;13.480;2023-07-31T07:27:29;7.68;;;6.55;;
14681;SDS011;7429;52.498;13.480;2023-07-31T07:30:32;8.93;;;7.40;;
14681;SDS011;7429;52.498;13.480;2023-07-31T07:33:37;12.85;;;6.75;;
14681;SDS011;7429;52.498;13.480;2023-07-31T07:36:40;7.60;;;6.80;;
14681;SDS011;7429;52.498;13.480;2023-07-31T07:39:44;7.90;;;7.10;;
14681;SDS011;7429;52.498;13.480;2023-07-31T07:42:47;10.68;;;9.65;;
14681;SDS011;7429;52.498;13.480;2023-07-31T07:45:50;9.30;;;7.95;;
14681;SDS011;7429;52.498;13.480;2023-07-31T07:48:55;9.52;;;8.63;;
14681;SDS011;7429;52.498;13.480;2023-07-31T07:51:58;8.63;;;6.90;;
14681;SDS011;7429;52.498;13.480;2023-07-31T07:55:02;10.63;;;8.07;;
14681;SDS011;7429;52.498;13.480;2023-07-31T07:58:06;7.88;;;7.18;;
14681;SDS011;7429;52.498;13.480;2023-07-31T08:01:10;9.18;;;8.40;;
14681;SDS011;7429;52.498;13.480;2023-07-31T08:04:14;8.07;;;7.07;;
14681;SDS011;7429;52.498;13.480;2023-07-31T08:07:17;10.95;;;10.15;;
14681;SDS011;7429;52.498;13.480;2023-07-31T08:10:20;7.97;;;7.28;;
14681;SDS011;7429;52.498;13.480;2023-07-31T08:13:25;7.30;;;6.75;;
14681;SDS011;7429;52.498;13.480;2023-07-31T08:16:32;9.68;;;8.73;;
14681;SDS011;7429;52.498;13.480;2023-07-31T08:19:36;9.80;;;9.02;;
14681;SDS011;7429;52.498;13.480;2023-07-31T08:22:40;6.80;;;6.25;;
14681;SDS011;7429;52.498;13.480;2023-07-31T08:25:44;6.03;;;5.72;;
14681;SDS011;7429;52.498;13.480;2023-07-31T08:28:47;8.48;;;7.82;;
14681;SDS011;7429;52.498;13.480;2023-07-31T08:31:51;10.10;;;9.50;;
14681;SDS011;7429;52.498;13.480;2023-07-31T08:34:55;6.50;;;6.07;;
14681;SDS011;7429;52.498;13.480;2023-07-31T08:37:58;10.27;;;9.35;;
14681;SDS011;7429;52.498;13.480;2023-07-31T08:41:02;6.30;;;5.85;;
14681;SDS011;7429;52.498;13.480;2023-07-31T08:44:06;7.47;;;6.65;;
14681;SDS011;7429;52.498;13.480;2023-07-31T08:47:10;5.55;;;5.03;;
14681;SDS011;7429;52.498;13.480;2023-07-31T08:50:16;4.60;;;4.20;;
14681;SDS011;7429;52.498;13.480;2023-07-31T08:53:20;7.88;;;7.35;;
14681;SDS011;7429;52.498;13.480;2023-07-31T08:56:23;8.82;;;8.23;;
14681;SDS011;7429;52.498;13.480;2023-07-31T08:59:28;8.25;;;7.20;;
14681;SDS011;7429;52.498;13.480;2023-07-31T09:02:35;12.20;;;11.40;;
14681;SDS011;7429;52.498;13.480;2023-07-31T09:05:45;8.63;;;7.93;;
14681;SDS011;7429;52.498;13.480;2023-07-31T09:08:49;6.20;;;5.70;;
14681;SDS011;7429;52.498;13.480;2023-07-31T09:11:53;5.85;;;5.45;;
14681;SDS011;7429;52.498;13.480;2023-07-31T09:14:58;8.38;;;7.65;;
14681;SDS011;7429;52.498;13.480;2023-07-31T09:18:01;9.88;;;9.20;;
14681;SDS011;7429;52.498;13.480;2023-07-31T09:21:07;8.52;;;7.90;;
14681;SDS011;7429;52.498;13.480;2023-07-31T09:24:11;9.20;;;8.63;;
14681;SDS011;7429;52.498;13.480;2023-07-31T09:27:29;7.50;;;6.32;;
14681;SDS011;7429;52.498;13.480;2023-07-31T09:30:50;6.45;;;5.93;;
14681;SDS011;7429;52.498;13.480;2023-07-31T09:33:54;4.68;;;4.38;;
14681;SDS011;7429;52.498;13.480;2023-07-31T09:37:01;5.07;;;4.68;;
14681;SDS011;7429;52.498;13.480;2023-07-31T09:40:05;4.82;;;4.53;;
14681;SDS011;7429;52.498;13.480;2023-07-31T09:43:10;6.60;;;6.20;;
14681;SDS011;7429;52.498;13.480;2023-07-31T09:46:15;4.70;;;4.25;;
14681;SDS011;7429;52.498;13.480;2023-07-31T09:49:18;6.07;;;5.68;;
14681;SDS011;7429;52.498;13.480;2023-07-31T09:52:22;10.20;;;9.70;;
14681;SDS011;7429;52.498;13.480;2023-07-31T09:55:29;10.50;;;9.88;;
14681;SDS011;7429;52.498;13.480;2023-07-31T09:58:33;6.25;;;5.80;;
14681;SDS011;7429;52.498;13.480;2023-07-31T10:01:38;7.90;;;7.55;;
14681;SDS011;7429;52.498;13.480;2023-07-31T10:04:43;4.55;;;4.28;;
14681;SDS011;7429;52.498;13.480;2023-07-31T10:07:51;4.70;;;4.43;;
14681;SDS011;7429;52.498;13.480;2023-07-31T10:10:58;14.25;;;13.55;;
14681;SDS011;7429;52.498;13.480;2023-07-31T10:14:04;7.13;;;6.63;;
14681;SDS011;7429;52.498;13.480;2023-07-31T10:17:09;7.07;;;6.47;;
14681;SDS011;7429;52.498;13.480;2023-07-31T10:20:13;5.65;;;5.15;;
14681;SDS011;7429;52.498;13.480;2023-07-31T10:23:20;5.85;;;5.45;;
14681;SDS011;7429;52.498;13.480;2023-07-31T10:26:24;9.38;;;8.73;;
14681;SDS011;7429;52.498;13.480;2023-07-31T10:29:28;6.75;;;5.40;;
14681;SDS011;7429;52.498;13.480;2023-07-31T10:32:32;6.68;;;6.05;;
14681;SDS011;7429;52.498;13.480;2023-07-31T10:35:36;8.35;;;6.97;;
14681;SDS011;7429;52.498;13.480;2023-07-31T10:38:40;8.20;;;6.40;;
14681;SDS011;7429;52.498;13.480;2023-07-31T10:41:43;8.50;;;7.03;;
14681;SDS011;7429;52.498;13.480;2023-07-31T10:44:46;8.45;;;6.72;;
14681;SDS011;7429;52.498;13.480;2023-07-31T10:47:49;6.85;;;5.63;;
14681;SDS011;7429;52.498;13.480;2023-07-31T10:51:00;11.48;;;10.57;;
14681;SDS011;7429;52.498;13.480;2023-07-31T10:54:14;14.15;;;9.32;;
14681;SDS011;7429;52.498;13.480;2023-07-31T10:57:20;14.02;;;12.85;;
14681;SDS011;7429;52.498;13.480;2023-07-31T11:00:25;9.63;;;7.05;;
14681;SDS011;7429;52.498;13.480;2023-07-31T11:03:42;10.25;;;9.23;;
14681;SDS011;7429;52.498;13.480;2023-07-31T11:06:56;16.20;;;14.95;;
14681;SDS011;7429;52.498;13.480;2023-07-31T11:10:01;9.10;;;8.30;;
14681;SDS011;7429;52.498;13.480;2023-07-31T11:13:05;7.47;;;6.05;;
14681;SDS011;7429;52.498;13.480;2023-07-31T11:16:09;8.95;;;5.78;;
14681;SDS011;7429;52.498;13.480;2023-07-31T11:19:14;8.50;;;5.80;;
14681;SDS011;7429;52.498;13.480;2023-07-31T11:22:17;8.90;;;6.15;;
14681;SDS011;7429;52.498;13.480;2023-07-31T11:25:33;11.10;;;10.15;;
14681;SDS011;7429;52.498;13.480;2023-07-31T11:28:37;6.75;;;5.75;;
14681;SDS011;7429;52.498;13.480;2023-07-31T11:31:41;5.70;;;5.03;;
14681;SDS011;7429;52.498;13.480;2023-07-31T11:34:51;8.23;;;5.50;;
14681;SDS011;7429;52.498;13.480;2023-07-31T11:37:55;5.88;;;4.78;;
14681;SDS011;7429;52.498;13.480;2023-07-31T11:40:59;6.57;;;4.85;;
14681;SDS011;7429;52.498;13.480;2023-07-31T11:44:04;7.65;;;6.95;;
14681;SDS011;7429;52.498;13.480;2023-07-31T11:47:27;9.02;;;6.85;;
14681;SDS011;7429;52.498;13.480;2023-07-31T11:50:33;8.50;;;7.75;;
14681;SDS011;7429;52.498;13.480;2023-07-31T11:53:40;6.75;;;5.93;;
14681;SDS011;7429;52.498;13.480;2023-07-31T11:56:47;9.25;;;5.03;;
14681;SDS011;7429;52.498;13.480;2023-07-31T11:59:51;6.13;;;5.53;;
14681;SDS011;7429;52.498;13.480;2023-07-31T12:02:55;7.07;;;5.60;;
14681;SDS011;7429;52.498;13.480;2023-07-31T12:05:58;5.53;;;5.10;;
14681;SDS011;7429;52.498;13.480;2023-07-31T12:09:02;5.70;;;5.18;;
14681;SDS011;7429;52.498;13.480;2023-07-31T12:12:09;6.75;;;6.15;;
14681;SDS011;7429;52.498;13.480;2023-07-31T12:15:15;8.57;;;5.50;;
14681;SDS011;7429;52.498;13.480;2023-07-31T12:18:18;5.82;;;5.40;;
14681;SDS011;7429;52.498;13.480;2023-07-31T12:21:23;6.13;;;4.80;;
14681;SDS011;7429;52.498;13.480;2023-07-31T12:24:29;8.07;;;5.40;;
14681;SDS011;7429;52.498;13.480;2023-07-31T12:27:34;6.95;;;5.20;;
14681;SDS011;7429;52.498;13.480;2023-07-31T12:30:37;5.70;;;4.85;;
14681;SDS011;7429;52.498;13.480;2023-07-31T12:33:42;4.72;;;4.32;;
14681;SDS011;7429;52.498;13.480;2023-07-31T12:36:45;6.65;;;4.78;;
14681;SDS011;7429;52.498;13.480;2023-07-31T12:39:49;8.98;;;5.03;;
14681;SDS011;7429;52.498;13.480;2023-07-31T12:42:54;9.02;;;5.30;;
14681;SDS011;7429;52.498;13.480;2023-07-31T12:45:57;4.22;;;3.88;;
14681;SDS011;7429;52.498;13.480;2023-07-31T12:49:01;6.20;;;4.60;;
14681;SDS011;7429;52.498;13.480;2023-07-31T12:52:04;5.13;;;4.65;;
14681;SDS011;7429;52.498;13.480;2023-07-31T12:55:09;8.88;;;5.63;;
14681;SDS011;7429;52.498;13.480;2023-07-31T12:58:14;6.80;;;4.00;;
14681;SDS011;7429;52.498;13.480;2023-07-31T13:01:17;4.45;;;4.10;;
14681;SDS011;7429;52.498;13.480;2023-07-31T13:04:20;6.18;;;4.47;;
14681;SDS011;7429;52.498;13.480;2023-07-31T13:07:23;3.85;;;3.33;;
14681;SDS011;7429;52.498;13.480;2023-07-31T13:10:29;4.00;;;2.92;;
14681;SDS011;7429;52.498;13.480;2023-07-31T13:13:34;3.67;;;2.88;;
14681;SDS011;7429;52.498;13.480;2023-07-31T13:16:37;3.55;;;3.03;;
14681;SDS011;7429;52.498;13.480;2023-07-31T13:19:40;6.75;;;3.72;;
14681;SDS011;7429;52.498;13.480;2023-07-31T13:22:44;9.73;;;3.75;;
14681;SDS011;7429;52.498;13.480;2023-07-31T13:25:47;4.60;;;4.20;;
14681;SDS011;7429;52.498;13.480;2023-07-31T13:28:54;4.60;;;4.20;;
14681;SDS011;7429;52.498;13.480;2023-07-31T13:31:57;6.50;;;4.03;;
14681;SDS011;7429;52.498;13.480;2023-07-31T13:35:00;7.75;;;3.80;;
14681;SDS011;7429;52.498;13.480;2023-07-31T13:38:05;7.43;;;3.70;;
14681;SDS011;7429;52.498;13.480;2023-07-31T13:41:08;4.93;;;4.13;;
14681;SDS011;7429;52.498;13.480;2023-07-31T13:44:12;5.70;;;4.32;;
14681;SDS011;7429;52.498;13.480;2023-07-31T13:47:21;5.40;;;4.45;;
14681;SDS011;7429;52.498;13.480;2023-07-31T13:50:25;6.68;;;4.70;;
14681;SDS011;7429;52.498;13.480;2023-07-31T13:53:28;7.03;;;4.80;;
14681;SDS011;7429;52.498;13.480;2023-07-31T13:56:31;6.10;;;4.65;;
14681;SDS011;7429;52.498;13.480;2023-07-31T13:59:35;4.97;;;4.13;;
14681;SDS011;7429;52.498;13.480;2023-07-31T14:02:39;8.77;;;4.45;;
14681;SDS011;7429;52.498;13.480;2023-07-31T14:05:44;9.25;;;4.88;;
14681;SDS011;7429;52.498;13.480;2023-07-31T14:08:48;5.18;;;4.40;;
14681;SDS011;7429;52.498;13.480;2023-07-31T14:11:51;5.35;;;4.03;;
14681;SDS011;7429;52.498;13.480;2023-07-31T14:14:55;9.27;;;4.30;;
14681;SDS011;7429;52.498;13.480;2023-07-31T14:17:58;7.75;;;4.28;;
14681;SDS011;7429;52.498;13.480;2023-07-31T14:21:03;7.60;;;5.10;;
14681;SDS011;7429;52.498;13.480;2023-07-31T14:24:08;9.10;;;5.20;;
14681;SDS011;7429;52.498;13.480;2023-07-31T14:27:12;5.43;;;4.40;;
14681;SDS011;7429;52.498;13.480;2023-07-31T14:30:16;5.63;;;4.80;;
14681;SDS011;7429;52.498;13.480;2023-07-31T14:33:19;5.65;;;4.72;;
14681;SDS011;7429;52.498;13.480;2023-07-31T14:36:23;6.15;;;4.75;;
14681;SDS011;7429;52.498;13.480;2023-07-31T14:39:26;5.25;;;4.25;;
14681;SDS011;7429;52.498;13.480;2023-07-31T14:42:32;8.68;;;4.65;;
14681;SDS011;7429;52.498;13.480;2023-07-31T14:45:36;6.35;;;4.82;;
14681;SDS011;7429;52.498;13.480;2023-07-31T14:48:39;6.32;;;4.25;;
14681;SDS011;7429;52.498;13.480;2023-07-31T14:51:42;5.50;;;3.80;;
14681;SDS011;7429;52.498;13.480;2023-07-31T14:54:46;6.25;;;4.63;;
14681;SDS011;7429;52.498;13.480;2023-07-31T14:57:49;4.00;;;3.55;;
14681;SDS011;7429;52.498;13.480;2023-07-31T15:00:53;5.00;;;3.95;;
14681;SDS011;7429;52.498;13.480;2023-07-31T15:03:56;5.63;;;4.22;;
14681;SDS011;7429;52.498;13.480;2023-07-31T15:07:01;5.00;;;4.35;;
14681;SDS011;7429;52.498;13.480;2023-07-31T15:10:04;7.63;;;4.85;;
14681;SDS011;7429;52.498;13.480;2023-07-31T15:13:09;4.88;;;4.47;;
14681;SDS011;7429;52.498;13.480;2023-07-31T15:16:14;5.85;;;4.38;;
14681;SDS011;7429;52.498;13.480;2023-07-31T15:19:21;5.00;;;4.35;;
14681;SDS011;7429;52.498;13.480;2023-07-31T15:22:25;5.60;;;4.80;;
14681;SDS011;7429;52.498;13.480;2023-07-31T15:25:28;7.40;;;5.07;;
14681;SDS011;7429;52.498;13.480;2023-07-31T15:28:31;6.40;;;5.80;;
14681;SDS011;7429;52.498;13.480;2023-07-31T15:31:44;7.40;;;5.50;;
14681;SDS011;7429;52.498;13.480;2023-07-31T15:34:52;6.53;;;5.13;;
14681;SDS011;7429;52.498;13.480;2023-07-31T15:37:55;7.07;;;5.82;;
14681;SDS011;7429;52.498;13.480;2023-07-31T15:40:59;6.90;;;6.30;;
14681;SDS011;7429;52.498;13.480;2023-07-31T15:44:02;6.75;;;5.72;;
14681;SDS011;7429;52.498;13.480;2023-07-31T15:47:06;9.50;;;6.05;;
14681;SDS011;7429;52.498;13.480;2023-07-31T15:50:10;9.45;;;6.03;;
14681;SDS011;7429;52.498;13.480;2023-07-31T15:53:13;6.97;;;6.28;;
14681;SDS011;7429;52.498;13.480;2023-07-31T15:56:17;7.65;;;6.93;;
14681;SDS011;7429;52.498;13.480;2023-07-31T15:59:20;7.90;;;7.03;;
14681;SDS011;7429;52.498;13.480;2023-07-31T16:02:25;7.72;;;6.72;;
14681;SDS011;7429;52.498;13.480;2023-07-31T16:05:28;10.13;;;9.43;;
14681;SDS011;7429;52.498;13.480;2023-07-31T16:08:39;6.97;;;6.32;;
14681;SDS011;7429;52.498;13.480;2023-07-31T16:11:43;8.35;;;6.95;;
14681;SDS011;7429;52.498;13.480;2023-07-31T16:14:47;8.68;;;6.00;;
14681;SDS011;7429;52.498;13.480;2023-07-31T16:17:51;6.68;;;5.97;;
14681;SDS011;7429;52.498;13.480;2023-07-31T16:20:58;6.65;;;5.75;;
14681;SDS011;7429;52.498;13.480;2023-07-31T16:24:02;10.95;;;9.95;;
14681;SDS011;7429;52.498;13.480;2023-07-31T16:27:06;6.78;;;6.15;;
14681;SDS011;7429;52.498;13.480;2023-07-31T16:30:10;6.28;;;5.40;;
14681;SDS011;7429;52.498;13.480;2023-07-31T16:33:13;7.45;;;5.35;;
14681;SDS011;7429;52.498;13.480;2023-07-31T16:36:17;6.93;;;6.30;;
14681;SDS011;7429;52.498;13.480;2023-07-31T16:39:24;7.50;;;4.93;;
14681;SDS011;7429;52.498;13.480;2023-07-31T16:42:27;8.85;;;5.68;;
14681;SDS011;7429;52.498;13.480;2023-07-31T16:45:31;8.10;;;5.20;;
14681;SDS011;7429;52.498;13.480;2023-07-31T16:48:34;6.45;;;5.13;;
14681;SDS011;7429;52.498;13.480;2023-07-31T16:51:37;7.28;;;4.10;;
14681;SDS011;7429;52.498;13.480;2023-07-31T16:54:42;5.07;;;4.15;;
14681;SDS011;7429;52.498;13.480;2023-07-31T16:57:45;6.20;;;5.70;;
14681;SDS011;7429;52.498;13.480;2023-07-31T17:01:00;5.72;;;4.35;;
14681;SDS011;7429;52.498;13.480;2023-07-31T17:04:07;6.75;;;4.30;;
14681;SDS011;7429;52.498;13.480;2023-07-31T17:07:15;6.32;;;4.90;;
14681;SDS011;7429;52.498;13.480;2023-07-31T17:10:20;7.18;;;5.65;;
14681;SDS011;7429;52.498;13.480;2023-07-31T17:13:24;5.32;;;4.82;;
14681;SDS011;7429;52.498;13.480;2023-07-31T17:16:31;5.25;;;4.75;;
14681;SDS011;7429;52.498;13.480;2023-07-31T17:19:35;6.88;;;5.10;;
14681;SDS011;7429;52.498;13.480;2023-07-31T17:22:38;6.82;;;4.20;;
14681;SDS011;7429;52.498;13.480;2023-07-31T17:25:50;7.07;;;6.45;;
14681;SDS011;7429;52.498;13.480;2023-07-31T17:28:56;5.82;;;4.63;;
14681;SDS011;7429;52.498;13.480;2023-07-31T17:32:01;4.55;;;3.72;;
14681;SDS011;7429;52.498;13.480;2023-07-31T17:35:10;4.82;;;3.58;;
14681;SDS011;7429;52.498;13.480;2023-07-31T17:38:13;5.68;;;5.18;;
14681;SDS011;7429;52.498;13.480;2023-07-31T17:41:20;4.32;;;3.92;;
14681;SDS011;7429;52.498;13.480;2023-07-31T17:44:23;6.88;;;4.80;;
14681;SDS011;7429;52.498;13.480;2023-07-31T17:47:27;8.02;;;6.47;;
14681;SDS011;7429;52.498;13.480;2023-07-31T17:50:30;5.22;;;4.10;;
14681;SDS011;7429;52.498;13.480;2023-07-31T17:53:34;8.25;;;5.63;;
14681;SDS011;7429;52.498;13.480;2023-07-31T17:56:38;7.97;;;7.30;;
14681;SDS011;7429;52.498;13.480;2023-07-31T17:59:42;7.13;;;4.18;;
14681;SDS011;7429;52.498;13.480;2023-07-31T18:02:46;7.40;;;6.43;;
14681;SDS011;7429;52.498;13.480;2023-07-31T18:05:50;5.65;;;4.80;;
14681;SDS011;7429;52.498;13.480;2023-07-31T18:08:53;6.70;;;5.28;;
14681;SDS011;7429;52.498;13.480;2023-07-31T18:11:57;6.20;;;5.68;;
14681;SDS011;7429;52.498;13.480;2023-07-31T18:15:00;6.72;;;6.22;;
14681;SDS011;7429;52.498;13.480;2023-07-31T18:18:03;6.50;;;5.78;;
14681;SDS011;7429;52.498;13.480;2023-07-31T18:21:07;6.30;;;5.05;;
14681;SDS011;7429;52.498;13.480;2023-07-31T18:24:11;7.00;;;6.40;;
14681;SDS011;7429;52.498;13.480;2023-07-31T18:27:15;4.50;;;4.20;;
14681;SDS011;7429;52.498;13.480;2023-07-31T18:30:19;5.32;;;4.82;;